METAR Data
IDs: Format: Raw Decoded Include TAF

Data at: 2046 UTC 18 Apr 2021

KCGC 182035Z AUTO 24006KT 10SM SCT019 BKN027 OVC045 25/21 A2985 RMK AO2
KCGC 182015Z AUTO 22004KT 10SM BKN021 BKN036 OVC046 26/21 A2986 RMK AO2 LTG DSNT W
KCGC 181955Z AUTO 00000KT 10SM BKN023 OVC028 26/21 A2986 RMK AO2 LTG DSNT W
KCGC 181935Z AUTO 20003KT 10SM BKN026 OVC033 26/20 A2987 RMK AO2
KCGC 181915Z AUTO 25005KT 10SM SCT026 26/20 A2988 RMK AO2
KCGC 181855Z AUTO 00000KT 10SM CLR 25/19 A2988 RMK AO2
KCGC 181835Z AUTO 13003KT 10SM CLR 26/19 A2990 RMK AO2
KCGC 181815Z AUTO 14003KT 10SM CLR 26/18 A2990 RMK AO2
KCGC 181755Z AUTO 12004KT 10SM CLR 24/18 A2991 RMK AO2
KCGC 181735Z AUTO 12003KT 10SM CLR 23/18 A2991 RMK AO2
KCGC 181715Z AUTO 12003KT 10SM CLR 22/18 A2991 RMK AO2
KCGC 181655Z AUTO 09006KT 10SM SCT032 SCT080 22/18 A2992 RMK AO2
KCGC 181635Z AUTO 09003KT 10SM SCT032 BKN038 BKN044 21/18 A2994 RMK AO2
KCGC 181615Z AUTO 08005KT 10SM BKN032 BKN038 OVC045 21/18 A2995 RMK AO2
KCGC 181555Z AUTO 07006KT 10SM BKN030 BKN038 21/18 A2996 RMK AO2
KCGC 181535Z AUTO 06004KT 10SM OVC030 20/18 A2996 RMK AO2
KCGC 181515Z AUTO 02005KT 10SM SCT008 OVC028 20/18 A2997 RMK AO2
KCGC 181455Z AUTO 02004KT 10SM -RA OVC028 20/18 A2996 RMK AO2 LTG DSNT NW P0004
KCGC 181435Z AUTO 36007KT 10SM OVC030 20/19 A2997 RMK AO2 P0004
KCGC 181415Z AUTO 34006KT 5SM -RA SCT007 BKN025 OVC030 20/18 A2997 RMK AO2 P0004
KCGC 181355Z AUTO 33006KT 10SM SCT007 BKN023 OVC027 20/19 A2997 RMK AO2 LTG DSNT NE
KCGC 181335Z AUTO 06003KT 10SM VCTS OVC031 20/20 A2992 RMK AO2 LTG DSNT N AND NE
KCGC 181315Z AUTO 00000KT 10SM VCTS OVC033 20/19 A2993 RMK AO2 LTG DSNT NW THRU NE
KCGC 181255Z AUTO 00000KT 10SM OVC033 20/19 A2994 RMK AO2 LTG DSNT N
KCGC 181235Z AUTO 00000KT 10SM OVC033 20/19 A2992 RMK AO2
KCGC 181215Z AUTO 00000KT 10SM OVC031 20/19 A2992 RMK AO2
KCGC 181155Z AUTO 00000KT 10SM OVC031 20/19 A2991 RMK AO2
KCGC 181135Z AUTO 00000KT 10SM OVC033 19/18 A2991 RMK AO2
KCGC 181115Z AUTO 00000KT 10SM BKN033 OVC039 19/18 A2991 RMK AO2
KCGC 181055Z AUTO 00000KT 10SM SCT040 18/18 A2991 RMK AO2
KCGC 181035Z AUTO 00000KT 10SM SCT034 18/18 A2990 RMK AO2
KCGC 181015Z AUTO 00000KT 10SM SCT034 19/18 A2990 RMK AO2
KCGC 180955Z AUTO 00000KT 10SM SCT034 18/18 A2990 RMK AO2
KCGC 180935Z AUTO 00000KT 10SM CLR 18/18 A2990 RMK AO2
KCGC 180915Z AUTO 00000KT 10SM BKN035 19/18 A2990 RMK AO2
KCGC 180855Z AUTO 00000KT 10SM OVC037 19/18 A2990 RMK AO2
KCGC 180835Z AUTO 00000KT 10SM OVC037 19/18 A2990 RMK AO2
KCGC 180815Z AUTO 00000KT 10SM BKN037 19/18 A2990 RMK AO2
KCGC 180755Z AUTO 00000KT 10SM SCT039 SCT049 19/18 A2990 RMK AO2
KCGC 180735Z AUTO 00000KT 10SM SCT041 BKN049 BKN055 19/18 A2989 RMK AO2
KCGC 180715Z AUTO 00000KT 10SM SCT031 OVC039 20/19 A2991 RMK AO2
KCGC 180655Z AUTO 00000KT 10SM BKN031 19/18 A2991 RMK AO2
KCGC 180635Z AUTO 00000KT 10SM CLR 19/18 A2991 RMK AO2
KCGC 180615Z AUTO 00000KT 10SM BKN050 BKN095 19/18 A2991 RMK AO2
KCGC 180555Z AUTO 00000KT 10SM BKN050 20/18 A2992 RMK AO2 P0001
KCGC 180535Z AUTO 00000KT 10SM SCT036 OVC050 20/18 A2992 RMK AO2 P0001
KCGC 180515Z AUTO 00000KT 10SM SCT031 BKN042 OVC050 20/18 A2992 RMK AO2 P0001
KCGC 180455Z AUTO 00000KT 10SM BKN029 OVC044 20/18 A2992 RMK AO2
KCGC 180435Z AUTO 00000KT 10SM OVC029 20/18 A2992 RMK AO2
KCGC 180415Z AUTO 00000KT 10SM BKN029 BKN035 OVC046 20/18 A2993 RMK AO2
KCGC 180355Z AUTO 06004KT 10SM BKN029 BKN035 OVC046 20/18 A2992 RMK AO2 P0004
KCGC 180335Z AUTO 01003KT 10SM -RA SCT019 BKN024 OVC029 20/18 A2994 RMK AO2 P0004
KCGC 180315Z AUTO 35005G15KT 10SM -RA SCT013 BKN019 OVC024 22/18 A2993 RMK AO2
KCGC 180255Z AUTO 26004KT 10SM SCT013 BKN038 OVC047 25/22 A2991 RMK AO2
KCGC 180235Z AUTO 25005KT 10SM SCT013 OVC047 24/22 A2989 RMK AO2
KCGC 180215Z AUTO 24005KT 10SM BKN013 SCT022 OVC049 24/22 A2988 RMK AO2 LTG DSNT NE AND NW
KCGC 180155Z AUTO 24004KT 10SM BKN011 OVC027 24/22 A2988 RMK AO2
KCGC 180135Z AUTO 24006KT 200V260 10SM BKN011 OVC017 24/22 A2987 RMK AO2 LTG DSNT N AND NE
KCGC 180115Z AUTO 24004KT 10SM BKN011 OVC050 24/22 A2987 RMK AO2 LTG DSNT N AND NW
KCGC 180055Z AUTO 22004KT 10SM BKN013 BKN050 25/22 A2986 RMK AO2
KCGC 180035Z AUTO 24004KT 10SM BKN013 BKN031 OVC060 25/22 A2986 RMK AO2 LTG DSNT N AND NE
KCGC 180015Z AUTO 23004KT 10SM BKN013 BKN027 OVC050 25/22 A2986 RMK AO2 LTG DSNT N AND NE
KCGC 172355Z AUTO 24006KT 210V270 10SM BKN013 BKN025 OVC048 25/22 A2986 RMK AO2 LTG DSNT N AND NE
KCGC 172335Z AUTO 23004KT 10SM BKN015 BKN023 OVC048 25/22 A2986 RMK AO2 LTG DSNT N
KCGC 172315Z AUTO 24006KT 10SM BKN015 BKN048 25/22 A2985 RMK AO2 LTG DSNT NE
KCGC 172255Z AUTO 23006KT 10SM BKN015 25/22 A2984 RMK AO2
KCGC 172235Z AUTO 24007KT 10SM SCT015 25/22 A2985 RMK AO2
KCGC 172215Z AUTO 21006KT 10SM BKN017 BKN025 26/22 A2984 RMK AO2
KCGC 172155Z AUTO 24008KT 10SM BKN017 BKN027 26/22 A2984 RMK AO2
KCGC 172135Z AUTO 24008KT 10SM BKN017 BKN025 BKN031 26/22 A2984 RMK AO2
KCGC 172115Z AUTO 24007G15KT 10SM BKN017 BKN026 OVC055 26/22 A2984 RMK AO2
KCGC 172055Z AUTO 24009G15KT 210V270 10SM OVC015 26/22 A2983 RMK AO2
KCGC 172035Z AUTO 24008KT 200V260 10SM BKN015 OVC019 26/22 A2984 RMK AO2
KCGC 172015Z AUTO 25010G17KT 10SM BKN013 BKN027 OVC036 26/22 A2984 RMK AO2
KCGC 171955Z AUTO 26011G16KT 10SM OVC015 26/22 A2985 RMK AO2
KCGC 171935Z AUTO 25012G17KT 10SM OVC013 26/22 A2986 RMK AO2
KCGC 171915Z AUTO 24007G16KT 10SM OVC013 26/22 A2986 RMK AO2
KCGC 171855Z AUTO 25007G16KT 10SM OVC015 26/22 A2987 RMK AO2
KCGC 171835Z AUTO 24009G16KT 10SM OVC015 26/22 A2987 RMK AO2
KCGC 171815Z AUTO 24008G19KT 150V270 10SM BKN015 OVC021 26/22 A2987 RMK AO2
KCGC 171755Z AUTO 24011G19KT 10SM BKN017 OVC026 26/21 A2987 RMK AO2
KCGC 171735Z AUTO 23005KT 10SM OVC017 27/22 A2987 RMK AO2
KCGC 171715Z AUTO 25005KT 10SM OVC017 26/21 A2987 RMK AO2
KCGC 171655Z AUTO 25008KT 10SM BKN019 OVC026 26/21 A2988 RMK AO2
KCGC 171635Z AUTO 25008KT 10SM SCT019 BKN024 OVC047 26/21 A2988 RMK AO2
KCGC 171615Z AUTO 24006KT 10SM SCT026 BKN030 OVC049 26/21 A2989 RMK AO2
KCGC 171555Z AUTO 23004KT 10SM BKN028 BKN033 OVC039 25/21 A2990 RMK AO2
KCGC 171535Z AUTO 21003KT 10SM SCT028 BKN033 OVC050 25/21 A2991 RMK AO2
KCGC 171515Z AUTO 00000KT 10SM SCT028 BKN043 OVC050 24/21 A2991 RMK AO2
KCGC 171455Z AUTO 28004KT 10SM SCT022 OVC029 24/21 A2991 RMK AO2
KCGC 171435Z AUTO 30004KT 10SM OVC024 24/21 A2991 RMK AO2
KCGC 171415Z AUTO 27005KT 10SM BKN027 OVC038 25/21 A2990 RMK AO2
KCGC 171355Z AUTO 28004KT 10SM SCT008 OVC029 24/21 A2989 RMK AO2
KCGC 171335Z AUTO 29005KT 10SM SCT010 OVC027 23/21 A2988 RMK AO2 LTG DSNT E
KCGC 171315Z AUTO 29005KT 10SM SCT010 BKN027 OVC038 23/21 A2988 RMK AO2 LTG DSNT E
KCGC 171255Z AUTO 29005KT 10SM SCT010 BKN021 OVC033 23/21 A2987 RMK AO2 LTG DSNT E
KCGC 171235Z AUTO 26008G16KT 10SM RA BKN010 OVC016 23/21 A2988 RMK AO2 LTG DSNT E
KCGC 171215Z AUTO 25011G16KT 10SM BKN010 OVC013 23/22 A2987 RMK AO2 LTG DSNT NE
KCGC 171155Z AUTO 25008KT 10SM VCTS OVC010 23/22 A2986 RMK AO2 LTG DSNT N AND NE
KCGC 171135Z AUTO 23005KT 10SM TS OVC010 23/22 A2985 RMK AO2 LTG DSNT NW THRU E
KCGC 171115Z AUTO 22004KT 10SM VCTS OVC010 23/22 A2984 RMK AO2 LTG DSNT W THRU NE
KCGC 171055Z AUTO 24006KT 10SM OVC010 23/22 A2982 RMK AO2 LTG DSNT NW THRU NE
KCGC 171035Z AUTO 24005KT 10SM VCTS OVC010 23/22 A2983 RMK AO2 LTG DSNT NW THRU NE
KCGC 171015Z AUTO 22004KT 10SM TS OVC010 23/22 A2982 RMK AO2 LTG DSNT N AND NW
KCGC 170955Z AUTO 21004KT 10SM TS OVC010 23/22 A2981 RMK AO2 LTG DSNT NW THRU NE
KCGC 170935Z AUTO 22006KT 10SM OVC010 23/22 A2982 RMK AO2 LTG DSNT NW THRU NE
KCGC 170915Z AUTO 23004KT 10SM VCTS OVC010 23/22 A2982 RMK AO2 LTG DSNT NW
KCGC 170855Z AUTO 22005KT 10SM VCTS OVC012 23/22 A2981 RMK AO2 LTG DSNT N AND NW